sim
Sign-in with your pilot id or email,
or register
Callsign
Passwort

Schedule Details

Flight Number: OEO8621
Departure: Maastricht Aachen Airport (EHBK) at 07:45
Arrival: Munich Airport (EDDM) at 09:05

Weather Information
Getting current METAR information for EHBK 191555Z AUTO 05007KT 020V080 9999 NCD 26/11 Q1015 NOSIG
Getting current METAR information for EDDM 191550Z 05003KT 020V080 CAVOK 21/12 Q1017 NOSIG

Schedule Frequency

Route Map